Time;durP1;ratioP1;P1;durP2;ratioP2;P2;SDS_P1;SDS_P2;PMS_P1;PMS_P2;Temp;Humidity;BMP_temperature;BMP_pressure;BME280_temperature;BME280_humidity;BME280_pressure;Samples;Min_cycle;Max_cycle;Signal;HPM_P1;HPM_P2
2021/05/05 00:01:35;;;;;;;1.50;1.50;;;7.80;59.30;;;;;;4975227;28;20432;-88
2021/05/05 00:04:01;;;;;;;4.43;1.90;;;7.80;59.30;;;;;;4975331;28;20185;-88
2021/05/05 00:06:27;;;;;;;1.52;1.52;;;7.60;59.00;;;;;;4957229;28;20249;-88
2021/05/05 00:08:52;;;;;;;2.00;1.90;;;7.80;59.40;;;;;;4974384;28;20276;-89
2021/05/05 00:11:18;;;;;;;1.90;1.90;;;7.70;59.50;;;;;;4957466;28;20174;-89
2021/05/05 00:13:44;;;;;;;2.63;1.57;;;7.70;59.40;;;;;;4957205;28;20174;-89
2021/05/05 00:16:10;;;;;;;0.90;0.90;;;7.70;59.30;;;;;;4957439;28;20975;-89
2021/05/05 00:18:36;;;;;;;3.73;1.93;;;7.60;59.20;;;;;;4957273;28;20418;-89
2021/05/05 00:21:04;;;;;;;1.53;1.53;;;7.70;59.30;;;;;;4974467;28;20933;-90
2021/05/05 00:23:30;;;;;;;1.80;1.70;;;7.70;59.10;;;;;;4974728;28;20172;-89
2021/05/05 00:25:55;;;;;;;2.77;1.73;;;7.60;59.00;;;;;;4974592;28;20198;-89
2021/05/05 00:28:21;;;;;;;1.37;1.37;;;7.50;59.20;;;;;;4974833;28;20166;-89
2021/05/05 00:30:47;;;;;;;3.27;2.40;;;7.50;59.00;;;;;;4974431;28;20412;-89
2021/05/05 00:33:12;;;;;;;1.40;1.40;;;7.40;59.10;;;;;;4974482;28;20178;-88
2021/05/05 00:35:38;;;;;;;3.03;1.27;;;7.40;59.10;;;;;;4975096;28;20177;-89
2021/05/05 00:38:05;;;;;;;2.30;1.50;;;7.50;59.10;;;;;;4974519;28;20162;-89
2021/05/05 00:40:30;;;;;;;1.98;1.77;;;7.40;59.20;;;;;;4957214;28;20174;-89
2021/05/05 00:42:56;;;;;;;1.50;1.50;;;7.50;59.00;;;;;;4978376;28;20630;-89
2021/05/05 00:45:22;;;;;;;7.70;2.00;;;7.40;59.10;;;;;;4961221;28;20173;-89
2021/05/05 00:47:47;;;;;;;1.50;1.50;;;7.40;58.70;;;;;;4960848;28;20228;-89
2021/05/05 00:50:15;;;;;;;1.53;1.43;;;7.40;59.10;;;;;;4961150;28;20177;-89
2021/05/05 00:52:40;;;;;;;2.10;1.90;;;7.40;59.20;;;;;;4960734;28;20215;-88
2021/05/05 00:55:07;;;;;;;1.50;1.50;;;8.90;60.40;;;;;;4978311;28;20525;-87
2021/05/05 00:57:33;;;;;;;1.90;1.73;;;7.30;59.20;;;;;;4977802;28;20162;-88
2021/05/05 00:59:59;;;;;;;1.63;1.63;;;7.40;59.40;;;;;;4977964;28;20170;-88
2021/05/05 01:02:24;;;;;;;1.37;1.37;;;7.40;59.40;;;;;;4977826;28;20409;-88
2021/05/05 01:04:51;;;;;;;1.63;1.53;;;7.30;59.30;;;;;;4978257;28;20162;-88
2021/05/05 01:07:16;;;;;;;2.13;2.03;;;7.00;59.00;;;;;;4961291;28;20665;-88
2021/05/05 01:09:44;;;;;;;2.47;2.40;;;7.30;58.90;;;;;;4977803;28;20449;-89
2021/05/05 01:12:12;;;;;;;3.53;2.05;;;7.20;59.00;;;;;;4960921;28;20178;-89
2021/05/05 01:14:38;;;;;;;2.13;2.13;;;9.30;61.10;;;;;;4960627;28;20268;-88
2021/05/05 01:17:05;;;;;;;2.47;2.40;;;7.20;59.60;;;;;;4960736;28;20404;-88
2021/05/05 01:19:31;;;;;;;2.58;2.47;;;7.10;59.70;;;;;;4977784;28;20463;-90
2021/05/05 01:21:56;;;;;;;2.10;1.90;;;7.10;60.20;;;;;;4976829;28;20234;-88
2021/05/05 01:24:22;;;;;;;1.80;1.80;;;7.10;60.10;;;;;;4977824;28;20264;-88
2021/05/05 01:26:47;;;;;;;2.47;2.37;;;7.00;59.80;;;;;;4977757;28;20213;-88
2021/05/05 01:29:13;;;;;;;1.60;1.60;;;7.10;60.10;;;;;;4977693;28;20526;-89
2021/05/05 01:31:39;;;;;;;2.40;2.20;;;7.10;60.30;;;;;;4960124;28;20637;-88
2021/05/05 01:34:04;;;;;;;2.03;2.03;;;7.10;60.10;;;;;;4960553;28;20261;-90
2021/05/05 01:36:33;;;;;;;1.90;1.80;;;7.10;59.90;;;;;;4960174;28;20186;-88
2021/05/05 01:38:59;;;;;;;4.03;2.05;;;7.10;59.70;;;;;;4960461;28;20418;-87
2021/05/05 01:41:24;;;;;;;2.03;1.93;;;7.10;59.80;;;;;;4959967;28;20174;-88
2021/05/05 01:43:50;;;;;;;2.20;2.10;;;7.20;60.00;;;;;;4976952;28;20192;-89
2021/05/05 01:46:19;;;;;;;1.70;1.70;;;7.20;59.80;;;;;;4976819;28;20224;-89
2021/05/05 01:48:45;;;;;;;2.57;2.57;;;7.20;59.70;;;;;;4977150;28;20174;-89
2021/05/05 01:51:11;;;;;;;2.50;2.33;;;7.20;59.70;;;;;;4975389;28;20497;-89
2021/05/05 01:53:36;;;;;;;2.47;2.40;;;7.20;59.60;;;;;;4959296;28;20440;-89
2021/05/05 01:56:02;;;;;;;3.70;2.47;;;7.10;59.80;;;;;;4976670;28;20244;-87
2021/05/05 01:58:28;;;;;;;4.33;2.23;;;7.10;60.00;;;;;;4976648;28;20177;-88
2021/05/05 02:00:53;;;;;;;2.80;2.63;;;7.00;60.80;;;;;;4976517;28;20201;-86
2021/05/05 02:03:19;;;;;;;2.90;2.73;;;7.00;62.70;;;;;;4976372;28;20221;-87
2021/05/05 02:05:44;;;;;;;3.23;3.13;;;7.00;64.10;;;;;;4976197;28;20321;-86
2021/05/05 02:08:10;;;;;;;4.20;3.13;;;6.90;65.40;;;;;;4976192;28;20217;-87
2021/05/05 02:10:35;;;;;;;3.70;3.50;;;6.80;66.20;;;;;;4976205;28;20510;-87
2021/05/05 02:13:01;;;;;;;3.87;3.67;;;6.70;66.00;;;;;;4976250;28;20170;-87
2021/05/05 02:15:26;;;;;;;3.40;3.30;;;6.70;66.40;;;;;;4958880;28;20249;-88
2021/05/05 02:17:52;;;;;;;6.50;3.77;;;6.50;66.90;;;;;;4976235;28;20265;-87
2021/05/05 02:20:21;;;;;;;3.50;3.20;;;6.40;67.10;;;;;;4976355;28;20167;-87
2021/05/05 02:22:47;;;;;;;3.85;3.75;;;6.40;67.30;;;;;;4977204;28;20176;-87
2021/05/05 02:25:14;;;;;;;3.23;3.23;;;6.40;67.40;;;;;;4977367;28;20197;-87
2021/05/05 02:27:40;;;;;;;4.00;3.90;;;6.30;68.30;;;;;;4962158;28;20528;-88
2021/05/05 02:30:09;;;;;;;3.72;3.63;;;6.40;67.80;;;;;;4977566;28;20909;-88
2021/05/05 02:32:35;;;;;;;3.37;3.07;;;6.40;68.10;;;;;;4959064;28;20582;-88
2021/05/05 02:35:03;;;;;;;2.90;2.80;;;6.40;67.70;;;;;;4976269;28;20414;-87
2021/05/05 02:37:29;;;;;;;3.72;3.63;;;6.30;67.40;;;;;;4976014;28;20190;-88
2021/05/05 02:39:54;;;;;;;4.47;3.93;;;6.20;67.50;;;;;;4975870;28;20210;-87
2021/05/05 02:42:20;;;;;;;4.53;3.33;;;6.30;67.50;;;;;;4975760;28;20225;-87
2021/05/05 02:44:48;;;;;;;4.05;3.92;;;6.30;66.80;;;;;;4975740;28;20541;-88
2021/05/05 02:47:16;;;;;;;2.95;2.95;;;6.30;65.90;;;;;;4958211;28;20271;-87
2021/05/05 02:49:41;;;;;;;3.47;3.38;;;6.30;66.40;;;;;;4975849;28;20221;-87
2021/05/05 02:52:07;;;;;;;3.40;3.30;;;6.20;66.20;;;;;;4975707;28;20633;-88
2021/05/05 02:54:34;;;;;;;3.97;3.77;;;6.30;66.10;;;;;;4974365;28;20178;-88
2021/05/05 02:57:00;;;;;;;3.55;3.45;;;6.30;64.80;;;;;;4958262;28;20512;-87
2021/05/05 02:59:26;;;;;;;4.40;3.13;;;6.40;64.40;;;;;;4958040;28;20316;-87
2021/05/05 03:01:56;;;;;;;3.60;3.40;;;6.30;64.90;;;;;;4975425;28;20178;-87
2021/05/05 03:04:22;;;;;;;4.03;3.83;;;6.30;65.20;;;;;;4974769;28;20225;-87
2021/05/05 03:06:47;;;;;;;4.07;3.70;;;6.40;64.90;;;;;;4975452;28;20206;-87
2021/05/05 03:09:16;;;;;;;4.27;3.97;;;6.40;65.10;;;;;;4958288;28;20669;-88
2021/05/05 03:11:41;;;;;;;3.95;3.85;;;6.50;65.30;;;;;;4957768;28;20182;-88
2021/05/05 03:14:07;;;;;;;3.70;3.60;;;6.50;64.20;;;;;;4974033;28;20183;-88
2021/05/05 03:16:33;;;;;;;4.40;4.00;;;6.50;65.00;;;;;;4958068;28;20185;-88
2021/05/05 03:18:58;;;;;;;4.50;4.37;;;6.50;65.60;;;;;;4958045;28;20178;-87
2021/05/05 03:21:24;;;;;;;4.87;4.67;;;6.40;65.80;;;;;;4975485;28;20432;-88
2021/05/05 03:23:49;;;;;;;4.87;4.60;;;6.40;66.00;;;;;;4975588;28;20166;-88
2021/05/05 03:26:15;;;;;;;5.43;5.13;;;6.30;65.60;;;;;;4958216;28;20206;-88
2021/05/05 03:28:41;;;;;;;5.33;4.87;;;6.40;66.10;;;;;;4975290;28;20174;-88
2021/05/05 03:31:06;;;;;;;5.40;4.97;;;6.40;66.60;;;;;;4974064;28;20181;-88
2021/05/05 03:33:32;;;;;;;7.73;5.10;;;6.30;66.40;;;;;;4975300;28;20596;-89
2021/05/05 03:35:58;;;;;;;5.82;5.43;;;6.40;66.90;;;;;;4975243;28;20636;-89
2021/05/05 03:38:24;;;;;;;7.37;5.83;;;6.30;66.30;;;;;;4975237;28;20174;-88
2021/05/05 03:40:50;;;;;;;5.95;5.65;;;6.10;67.00;;;;;;4957669;28;21044;-89
2021/05/05 03:43:16;;;;;;;4.33;4.13;;;6.10;67.60;;;;;;4974061;28;20269;-89
2021/05/05 03:45:41;;;;;;;6.70;6.10;;;6.00;67.50;;;;;;4975256;28;20956;-88
2021/05/05 03:48:07;;;;;;;6.83;6.30;;;6.10;67.30;;;;;;4975487;28;20673;-88
2021/05/05 03:50:34;;;;;;;12.30;6.05;;;6.00;67.70;;;;;;4975597;28;20673;-89
2021/05/05 03:53:00;;;;;;;14.95;6.97;;;5.90;68.10;;;;;;4975212;28;20176;-88
2021/05/05 03:55:26;;;;;;;6.63;6.13;;;6.10;68.20;;;;;;4975546;28;20229;-89
2021/05/05 03:57:52;;;;;;;6.70;6.30;;;6.10;67.70;;;;;;4957792;28;20178;-89
2021/05/05 04:00:19;;;;;;;6.28;5.97;;;6.20;67.90;;;;;;4974878;28;20173;-88
2021/05/05 04:02:44;;;;;;;5.78;5.38;;;6.20;67.20;;;;;;4957779;28;20251;-87
2021/05/05 04:05:11;;;;;;;6.53;5.60;;;6.20;66.80;;;;;;4957433;28;20174;-88
2021/05/05 04:07:36;;;;;;;7.20;6.50;;;6.30;66.90;;;;;;4958611;28;20221;-88
2021/05/05 04:10:07;;;;;;;5.87;5.43;;;6.30;68.00;;;;;;4973650;28;20210;-88
2021/05/05 04:12:33;;;;;;;6.40;6.00;;;6.30;66.30;;;;;;4957648;28;20545;-88
2021/05/05 04:14:58;;;;;;;6.40;6.10;;;6.30;66.60;;;;;;4957395;28;20170;-89
2021/05/05 04:17:24;;;;;;;5.83;5.53;;;6.40;66.90;;;;;;4975087;28;20172;-87
2021/05/05 04:19:54;;;;;;;6.22;5.95;;;6.50;66.10;;;;;;4957167;28;20564;-88
2021/05/05 04:22:20;;;;;;;5.80;5.50;;;6.40;65.70;;;;;;4957388;28;20173;-88
2021/05/05 04:24:45;;;;;;;6.60;6.00;;;6.40;66.40;;;;;;4974666;28;20417;-88
2021/05/05 04:27:12;;;;;;;7.23;6.73;;;6.40;66.10;;;;;;4974811;28;20209;-89
2021/05/05 04:29:37;;;;;;;6.95;6.00;;;6.50;65.90;;;;;;4975827;28;20653;-88
2021/05/05 04:32:03;;;;;;;5.37;4.93;;;6.40;65.80;;;;;;4974886;28;20174;-88
2021/05/05 04:34:29;;;;;;;9.20;8.23;;;6.60;65.70;;;;;;4957480;28;20170;-88
2021/05/05 04:36:55;;;;;;;6.60;6.03;;;6.40;66.10;;;;;;4975471;28;20971;-88
2021/05/05 04:39:21;;;;;;;7.90;7.20;;;6.60;65.90;;;;;;4975112;28;20208;-87
2021/05/05 04:41:47;;;;;;;8.13;7.37;;;6.60;65.30;;;;;;4975058;28;20414;-89
2021/05/05 04:44:15;;;;;;;6.83;6.40;;;6.70;66.20;;;;;;4974601;28;20920;-89
2021/05/05 04:46:41;;;;;;;6.00;5.45;;;6.70;66.50;;;;;;4974806;28;20577;-88
2021/05/05 04:49:06;;;;;;;9.30;8.40;;;6.60;65.50;;;;;;4973988;28;20170;-89
2021/05/05 04:51:32;;;;;;;6.30;5.97;;;6.60;65.70;;;;;;4973295;28;20213;-87
2021/05/05 04:53:58;;;;;;;6.43;6.00;;;6.50;65.10;;;;;;4975174;28;20175;-89
2021/05/05 04:56:23;;;;;;;9.10;8.33;;;6.60;65.80;;;;;;4975068;28;20181;-88
2021/05/05 04:58:49;;;;;;;9.07;7.47;;;8.00;67.50;;;;;;4957908;28;20630;-89
2021/05/05 05:01:14;;;;;;;7.83;7.30;;;6.50;65.40;;;;;;4957836;28;20174;-87
2021/05/05 05:03:40;;;;;;;8.17;7.50;;;6.60;66.10;;;;;;4974889;28;20175;-89
2021/05/05 05:06:06;;;;;;;8.70;7.93;;;6.60;66.20;;;;;;4958118;28;20194;-90
2021/05/05 05:08:31;;;;;;;8.53;7.93;;;6.50;66.30;;;;;;4976705;28;20513;-87
2021/05/05 05:10:57;;;;;;;6.63;6.13;;;6.60;66.90;;;;;;4977130;28;20186;-90
2021/05/05 05:13:23;;;;;;;7.97;7.30;;;6.60;67.20;;;;;;4958200;28;20181;-89
2021/05/05 05:15:48;;;;;;;9.60;8.77;;;6.60;67.70;;;;;;4975029;28;20201;-86
2021/05/05 05:18:14;;;;;;;9.03;8.50;;;6.50;68.00;;;;;;4958102;28;20188;-90
2021/05/05 05:20:40;;;;;;;9.60;8.70;;;6.50;68.00;;;;;;4975356;28;20224;-89
2021/05/05 05:23:06;;;;;;;9.35;8.55;;;6.60;68.10;;;;;;4974932;28;20244;-89
2021/05/05 05:25:31;;;;;;;8.47;7.80;;;6.00;67.30;;;;;;4975287;28;20209;-89
2021/05/05 05:27:57;;;;;;;8.33;7.77;;;6.40;67.60;;;;;;4977493;28;20539;-84
2021/05/05 05:30:24;;;;;;;5.23;4.90;;;6.30;68.00;;;;;;4977772;28;20243;-88
2021/05/05 05:32:51;;;;;;;4.50;4.30;;;6.30;69.20;;;;;;4959722;28;20672;-87
2021/05/05 05:35:17;;;;;;;6.03;5.53;;;6.10;68.60;;;;;;4976620;28;20174;-87
2021/05/05 05:37:42;;;;;;;6.47;4.70;;;6.10;70.10;;;;;;4977313;28;20532;-88
2021/05/05 05:40:09;;;;;;;7.77;4.73;;;6.00;69.40;;;;;;4977326;28;20420;-88
2021/05/05 05:42:34;;;;;;;3.90;3.53;;;5.90;69.80;;;;;;4977008;28;20166;-84
2021/05/05 05:45:00;;;;;;;3.80;3.60;;;5.90;70.30;;;;;;4959929;28;20268;-87
2021/05/05 05:47:26;;;;;;;4.00;3.80;;;5.80;71.20;;;;;;4975725;28;20269;-86
2021/05/05 05:49:51;;;;;;;4.50;4.30;;;5.70;70.90;;;;;;4975669;28;20210;-86
2021/05/05 05:52:17;;;;;;;5.70;5.40;;;5.80;72.40;;;;;;4977782;28;20170;-87
2021/05/05 05:54:43;;;;;;;5.10;4.70;;;5.80;73.00;;;;;;4631928;28;10000174;-86
2021/05/05 05:57:09;;;;;;;6.50;6.10;;;6.40;73.20;;;;;;4958642;28;20917;-86
2021/05/05 05:59:34;;;;;;;6.20;5.77;;;5.70;74.00;;;;;;4957103;28;20170;-87
2021/05/05 06:02:00;;;;;;;7.23;6.33;;;5.70;75.00;;;;;;4975590;28;20425;-88
2021/05/05 06:04:26;;;;;;;6.00;5.73;;;5.80;75.60;;;;;;4974540;28;20187;-87
2021/05/05 06:06:52;;;;;;;6.30;6.00;;;5.80;74.60;;;;;;4975473;28;20465;-88
2021/05/05 06:09:17;;;;;;;8.87;8.17;;;5.90;74.70;;;;;;4978054;28;20218;-87
2021/05/05 06:11:43;;;;;;;9.50;8.30;;;5.80;74.70;;;;;;4978108;28;20221;-90
2021/05/05 06:14:09;;;;;;;11.27;10.33;;;6.00;75.40;;;;;;4960840;28;20201;-89
2021/05/05 06:16:35;;;;;;;10.40;9.20;;;6.00;76.30;;;;;;4961759;28;20728;-89
2021/05/05 06:19:00;;;;;;;11.87;10.77;;;5.80;76.50;;;;;;4960618;28;20259;-88
2021/05/05 06:21:26;;;;;;;14.23;11.47;;;6.00;76.10;;;;;;4969416;28;20178;-90
2021/05/05 06:23:52;;;;;;;15.10;11.97;;;6.10;77.40;;;;;;4979859;28;20174;-87
2021/05/05 06:26:19;;;;;;;14.20;12.18;;;6.00;74.60;;;;;;4979390;28;20285;-86
2021/05/05 06:28:44;;;;;;;10.73;8.85;;;5.30;74.60;;;;;;4980053;28;20166;-87
2021/05/05 06:31:11;;;;;;;11.07;10.30;;;6.10;75.30;;;;;;4972126;28;20550;-87
2021/05/05 06:33:37;;;;;;;8.93;8.20;;;6.10;74.10;;;;;;4974931;28;20261;-84
2021/05/05 06:36:03;;;;;;;16.03;8.57;;;6.30;75.30;;;;;;4958425;28;20712;-88
2021/05/05 06:38:29;;;;;;;12.03;10.97;;;6.30;74.60;;;;;;4978765;28;20410;-90
2021/05/05 06:40:55;;;;;;;10.30;9.47;;;6.30;75.50;;;;;;4961284;28;20432;-89
2021/05/05 06:43:21;;;;;;;11.77;10.77;;;6.30;75.60;;;;;;4977194;28;20313;-89
2021/05/05 06:45:47;;;;;;;12.90;11.70;;;6.20;75.10;;;;;;4978874;28;20598;-90
2021/05/05 06:48:12;;;;;;;13.13;11.83;;;6.00;75.10;;;;;;4978507;28;20245;-89
2021/05/05 06:50:38;;;;;;;14.47;13.27;;;5.60;75.70;;;;;;4978745;28;20409;-88
2021/05/05 06:53:03;;;;;;;11.73;10.83;;;6.10;77.10;;;;;;4959290;28;20689;-89
2021/05/05 06:55:29;;;;;;;11.20;10.30;;;5.70;77.70;;;;;;4941101;29;20197;-88
2021/05/05 06:57:55;;;;;;;13.43;10.40;;;5.60;76.80;;;;;;4957551;29;20175;-86
2021/05/05 07:00:21;;;;;;;10.57;9.50;;;7.00;80.00;;;;;;4965010;29;20175;-87
2021/05/05 07:02:47;;;;;;;9.80;9.15;;;5.60;77.40;;;;;;4956532;29;20187;-88
2021/05/05 07:05:13;;;;;;;8.90;7.20;;;5.60;77.00;;;;;;4959119;29;20771;-88
2021/05/05 07:07:39;;;;;;;6.47;6.07;;;5.50;75.30;;;;;;4944221;29;20206;-88
2021/05/05 07:10:05;;;;;;;8.80;8.20;;;5.30;75.60;;;;;;4948368;29;20981;-88
2021/05/05 07:12:31;;;;;;;8.35;7.75;;;5.30;77.00;;;;;;4959193;29;20180;-89
2021/05/05 07:14:56;;;;;;;11.20;10.37;;;5.30;76.90;;;;;;4964040;29;20167;-88
2021/05/05 07:17:22;;;;;;;9.37;8.67;;;5.20;77.20;;;;;;4958334;29;20174;-87
2021/05/05 07:19:50;;;;;;;12.77;11.77;;;5.20;78.10;;;;;;4966066;28;20240;-85
2021/05/05 07:22:16;;;;;;;11.48;10.52;;;5.30;78.70;;;;;;4960399;28;20185;-86
2021/05/05 07:24:42;;;;;;;10.73;10.00;;;4.20;77.90;;;;;;4966643;28;20181;-87
2021/05/05 07:27:07;;;;;;;6.10;5.80;;;5.40;78.50;;;;;;4966079;28;20218;-87
2021/05/05 07:29:33;;;;;;;4.73;4.40;;;6.40;79.80;;;;;;4987040;28;20204;-82
2021/05/05 07:31:59;;;;;;;4.13;4.03;;;5.60;75.60;;;;;;4971592;28;20218;-87
2021/05/05 07:34:25;;;;;;;3.77;3.67;;;5.80;75.60;;;;;;4991155;28;20519;-86
2021/05/05 07:36:55;;;;;;;4.27;3.93;;;5.90;74.70;;;;;;4978257;28;20589;-85
2021/05/05 07:45:08;;;;;;;3.78;3.67;;;6.20;73.60;;;;;;4976163;28;20197;-86
2021/05/05 07:47:43;;;;;;;4.10;3.90;;;6.20;73.70;;;;;;4977562;28;20696;-86
2021/05/05 07:50:11;;;;;;;5.45;5.25;;;6.20;73.70;;;;;;4975194;28;20166;-87
2021/05/05 07:52:37;;;;;;;5.27;5.00;;;6.00;74.90;;;;;;4632052;28;9999685;-86
2021/05/05 07:55:06;;;;;;;5.37;5.20;;;5.70;73.70;;;;;;4960215;28;20264;-86
2021/05/05 07:57:32;;;;;;;6.22;5.72;;;5.60;75.70;;;;;;4976708;28;20166;-86
2021/05/05 07:59:58;;;;;;;5.10;4.80;;;5.80;75.20;;;;;;4959579;28;20177;-85
2021/05/05 08:02:26;;;;;;;4.10;4.00;;;4.90;74.60;;;;;;4979868;28;20197;-86
2021/05/05 08:04:52;;;;;;;4.47;4.38;;;4.70;76.00;;;;;;4633745;28;10000564;-88
2021/05/05 08:07:19;;;;;;;3.90;2.90;;;5.30;75.50;;;;;;4958314;28;20213;-87
2021/05/05 08:09:54;;;;;;;3.15;2.95;;;5.20;76.00;;;;;;4991829;28;20201;-87
2021/05/05 08:12:28;;;;;;;2.72;2.60;;;5.20;76.70;;;;;;4979993;28;20173;-88
2021/05/05 08:15:09;;;;;;;2.25;2.25;;;5.30;76.70;;;;;;4978716;28;20168;-87
2021/05/05 08:18:00;;;;;;;2.72;2.53;;;5.30;76.40;;;;;;4978882;28;20213;-90
2021/05/05 08:23:08;;;;;;;3.70;3.60;;;5.50;75.30;;;;;;5302092;22;20245;-88
2021/05/05 08:25:40;;;;;;;2.80;2.70;;;4.80;73.30;;;;;;4975133;29;20178;-89
2021/05/05 08:28:07;;;;;;;4.43;4.32;;;8.40;79.00;;;;;;5606127;23;20234;-88
2021/05/05 08:30:34;;;;;;;4.10;3.90;;;8.50;84.10;;;;;;4993159;28;20178;-85
2021/05/05 08:33:03;;;;;;;3.40;3.40;;;8.00;77.40;;;;;;4994797;28;20184;-92
2021/05/05 08:40:39;;;;;;;2.55;2.55;;;8.10;82.40;;;;;;3673537;22;20237;-88
2021/05/05 08:43:08;;;;;;;1.87;1.87;;;10.90;76.80;;;;;;4976567;28;20241;-88
2021/05/05 08:45:34;;;;;;;1.70;1.70;;;11.90;73.70;;;;;;4993608;28;20162;-91
2021/05/05 08:48:08;;;;;;;1.73;1.73;;;9.90;65.40;;;;;;4992372;28;20433;-91
2021/05/05 08:50:37;;;;;;;2.03;1.93;;;11.90;60.90;;;;;;4975351;28;20428;-90
2021/05/05 08:53:04;;;;;;;1.83;1.73;;;14.90;60.80;;;;;;4994853;28;20429;-89
2021/05/05 08:55:31;;;;;;;2.17;2.07;;;12.70;58.00;;;;;;4979500;28;20427;-88
2021/05/05 08:58:02;;;;;;;1.70;1.70;;;11.50;54.10;;;;;;4949064;28;20422;-89
2021/05/05 09:00:30;;;;;;;2.60;2.50;;;12.10;54.80;;;;;;4983182;28;20433;-87
2021/05/05 09:02:57;;;;;;;2.70;2.60;;;13.50;54.60;;;;;;4961227;28;20480;-89
2021/05/05 09:05:23;;;;;;;3.10;3.00;;;12.10;54.40;;;;;;4979441;28;20763;-88
2021/05/05 09:07:49;;;;;;;3.17;3.07;;;11.70;54.70;;;;;;4980214;28;20538;-89
2021/05/05 09:10:21;;;;;;;3.83;3.30;;;12.30;54.40;;;;;;4962403;28;20816;-88
2021/05/05 09:12:53;;;;;;;6.00;4.07;;;11.60;55.90;;;;;;4962962;28;20188;-89
2021/05/05 09:15:24;;;;;;;3.93;3.73;;;11.90;56.70;;;;;;4963023;28;21017;-87
2021/05/05 09:17:55;;;;;;;2.80;2.80;;;10.60;56.60;;;;;;4961474;28;20421;-88
2021/05/05 09:20:28;;;;;;;4.77;2.90;;;11.20;56.60;;;;;;4960172;28;20429;-89
2021/05/05 09:22:55;;;;;;;3.37;3.00;;;10.90;55.50;;;;;;4963013;28;20425;-90
2021/05/05 09:25:25;;;;;;;4.20;4.00;;;11.40;57.10;;;;;;4979386;28;20421;-90
2021/05/05 09:28:06;;;;;;;5.43;4.40;;;10.10;56.80;;;;;;4977578;28;20468;-87
2021/05/05 09:30:34;;;;;;;4.83;4.50;;;9.60;58.10;;;;;;4978214;28;20806;-88
2021/05/05 09:33:00;;;;;;;4.17;3.77;;;9.20;59.40;;;;;;4960153;28;20508;-86
2021/05/05 09:35:34;;;;;;;10.27;4.97;;;9.40;58.80;;;;;;4961176;28;20500;-90
2021/05/05 09:38:06;;;;;;;5.40;5.00;;;9.50;58.50;;;;;;4982413;28;20186;-88
2021/05/05 09:40:34;;;;;;;5.33;4.50;;;8.60;58.50;;;;;;4979934;28;20401;-88
2021/05/05 09:43:15;;;;;;;4.72;4.43;;;9.10;59.10;;;;;;4948070;28;20523;-88
2021/05/05 09:45:41;;;;;;;6.57;4.90;;;7.00;58.30;;;;;;4964803;28;20197;-89
2021/05/05 09:48:07;;;;;;;3.70;3.43;;;8.50;59.90;;;;;;4967757;28;20181;-86
2021/05/05 09:50:42;;;;;;;4.63;4.23;;;8.60;61.60;;;;;;4965904;28;20200;-85
2021/05/05 09:53:33;;;;;;;4.90;4.60;;;7.70;58.80;;;;;;4971307;28;20180;-87
2021/05/05 09:55:58;;;;;;;5.57;4.65;;;8.20;61.20;;;;;;4974103;28;20256;-91
2021/05/05 09:58:36;;;;;;;8.93;8.23;;;8.10;62.90;;;;;;4991886;28;20185;-88
2021/05/05 10:01:05;;;;;;;6.78;6.28;;;8.00;64.20;;;;;;4973375;28;20174;-89
2021/05/05 10:03:39;;;;;;;8.88;6.22;;;9.10;66.60;;;;;;4965993;28;20170;-90
2021/05/05 10:06:28;;;;;;;8.10;7.30;;;9.00;67.40;;;;;;4985213;28;20276;-89
2021/05/05 10:08:57;;;;;;;10.10;7.65;;;7.90;66.60;;;;;;4982558;28;20194;-90
2021/05/05 10:11:30;;;;;;;6.57;6.18;;;8.70;69.30;;;;;;4963343;28;20177;-87
2021/05/05 10:14:13;;;;;;;8.05;7.30;;;7.40;68.20;;;;;;4979442;28;20170;-86
2021/05/05 10:17:01;;;;;;;7.90;7.23;;;7.50;70.10;;;;;;4965925;28;20170;-89
2021/05/05 10:19:28;;;;;;;4.85;4.50;;;8.00;69.80;;;;;;4992385;28;20908;-87
2021/05/05 10:22:06;;;;;;;5.70;5.18;;;9.00;68.10;;;;;;4993323;28;20246;-88
2021/05/05 10:24:35;;;;;;;4.77;4.30;;;9.00;62.70;;;;;;4994729;28;20185;-87
2021/05/05 10:27:07;;;;;;;3.60;3.40;;;9.60;59.40;;;;;;4975572;28;20469;-91
2021/05/05 10:29:35;;;;;;;2.60;2.40;;;11.50;58.90;;;;;;4984898;28;20468;-89
2021/05/05 10:32:06;;;;;;;4.25;2.40;;;13.30;57.70;;;;;;4274125;29;10000716;-89
2021/05/05 10:34:32;;;;;;;2.80;2.70;;;12.00;56.40;;;;;;4944170;29;20245;-89
2021/05/05 10:37:03;;;;;;;2.90;2.67;;;10.20;55.60;;;;;;4956882;29;20430;-86
2021/05/05 10:39:41;;;;;;;2.80;2.73;;;8.70;56.40;;;;;;4958543;29;20179;-89
2021/05/05 10:42:17;;;;;;;2.47;2.27;;;9.90;57.40;;;;;;4962728;29;20461;-86
2021/05/05 10:44:50;;;;;;;1.77;1.20;;;10.00;55.70;;;;;;4951112;29;20430;-87
2021/05/05 10:47:22;;;;;;;2.63;2.50;;;9.90;56.10;;;;;;4974179;29;20469;-88
2021/05/05 10:50:11;;;;;;;1.73;1.20;;;10.00;56.90;;;;;;4962230;29;20477;-86
2021/05/05 10:52:37;;;;;;;2.17;1.97;;;10.20;55.60;;;;;;4945807;29;20438;-83
2021/05/05 10:55:08;;;;;;;4.80;1.67;;;10.40;54.30;;;;;;4953916;29;20415;-82
2021/05/05 10:57:36;;;;;;;1.80;1.70;;;10.40;55.90;;;;;;4953165;29;20201;-84
2021/05/05 11:00:06;;;;;;;2.00;1.90;;;10.20;54.80;;;;;;4953425;29;20425;-82
2021/05/05 11:02:46;;;;;;;2.33;2.20;;;10.00;56.60;;;;;;4953381;29;20833;-84
2021/05/05 11:05:18;;;;;;;3.40;2.80;;;10.00;56.90;;;;;;4955736;29;20406;-86
2021/05/05 11:07:58;;;;;;;4.10;3.80;;;9.60;57.90;;;;;;4961262;29;20478;-87
2021/05/05 11:10:36;;;;;;;4.15;3.42;;;9.10;57.70;;;;;;4962512;29;20839;-89
2021/05/05 11:13:12;;;;;;;3.87;3.57;;;8.70;60.00;;;;;;4967644;29;20182;-90
2021/05/05 11:15:40;;;;;;;3.63;3.53;;;8.60;62.90;;;;;;4965874;29;20521;-89
2021/05/05 11:18:25;;;;;;;5.37;4.93;;;9.00;71.80;;;;;;4966397;29;20493;-89
2021/05/05 11:20:54;;;;;;;3.38;3.25;;;8.00;63.00;;;;;;4963185;29;20481;-90
2021/05/05 11:23:33;;;;;;;4.67;4.40;;;9.50;60.90;;;;;;4964043;29;20233;-90
2021/05/05 11:26:21;;;;;;;3.63;3.53;;;9.80;62.60;;;;;;4961160;29;20520;-89
2021/05/05 11:29:06;;;;;;;4.10;3.90;;;8.50;61.10;;;;;;4942127;29;20426;-89
2021/05/05 11:31:44;;;;;;;3.67;3.40;;;8.70;59.70;;;;;;4941085;29;20477;-89
2021/05/05 11:34:23;;;;;;;3.50;3.37;;;9.50;59.90;;;;;;4965637;29;20437;-87
2021/05/05 11:36:58;;;;;;;4.50;4.00;;;9.60;59.30;;;;;;4963490;28;20426;-91
2021/05/05 11:39:26;;;;;;;3.27;3.07;;;8.10;57.00;;;;;;4958952;29;20442;-89
2021/05/05 11:41:57;;;;;;;9.40;5.03;;;9.40;58.30;;;;;;4961201;29;20454;-88
2021/05/05 11:44:52;;;;;;;4.00;2.30;;;9.10;59.10;;;;;;4958499;29;20775;-88
2021/05/05 11:47:23;;;;;;;2.40;2.30;;;8.30;59.90;;;;;;4924974;29;20469;-88
2021/05/05 11:49:58;;;;;;;6.70;2.50;;;7.50;62.30;;;;;;4957557;29;20178;-89
2021/05/05 11:52:27;;;;;;;2.72;2.63;;;7.10;64.20;;;;;;4943273;29;20223;-88
2021/05/05 11:54:56;;;;;;;3.85;2.65;;;6.90;65.10;;;;;;4955863;29;20250;-87
2021/05/05 11:57:24;;;;;;;3.15;1.92;;;6.90;66.50;;;;;;4959360;29;20575;-86
2021/05/05 11:59:51;;;;;;;2.03;1.92;;;6.80;67.40;;;;;;4957551;29;20182;-86
2021/05/05 12:02:19;;;;;;;2.50;2.40;;;6.90;68.40;;;;;;4959976;29;20203;-85
2021/05/05 12:04:45;;;;;;;2.40;1.80;;;7.00;68.00;;;;;;4940503;29;20626;-86
2021/05/05 12:07:11;;;;;;;4.10;2.30;;;7.20;69.00;;;;;;4940256;29;20989;-87
2021/05/05 12:09:41;;;;;;;1.93;1.67;;;7.80;67.90;;;;;;4958018;29;20175;-87
2021/05/05 12:12:17;;;;;;;3.17;1.87;;;8.10;62.20;;;;;;4957594;29;20485;-87
2021/05/05 12:14:46;;;;;;;44.40;29.33;;;9.00;62.30;;;;;;4957622;29;20417;-87
2021/05/05 12:20:20;;;;;;;4.93;2.07;;;9.90;59.00;;;;;;4942541;29;20477;-87
2021/05/05 12:22:57;;;;;;;1.80;1.60;;;12.30;57.70;;;;;;4959536;29;20426;-89
2021/05/05 12:25:32;;;;;;;1.83;1.73;;;13.40;53.40;;;;;;4956893;29;20858;-90
2021/05/05 12:28:01;;;;;;;1.87;1.83;;;13.80;54.70;;;;;;4956297;29;20457;-87
2021/05/05 12:30:40;;;;;;;2.40;2.20;;;15.10;52.70;;;;;;4957470;28;20428;-88
2021/05/05 12:33:07;;;;;;;2.50;2.30;;;14.60;51.90;;;;;;4960417;28;20429;-89
2021/05/05 12:35:35;;;;;;;2.63;2.53;;;14.40;49.40;;;;;;4942468;29;20926;-88
2021/05/05 12:38:06;;;;;;;3.47;3.33;;;15.60;49.70;;;;;;4625955;28;9999863;-89
2021/05/05 12:40:32;;;;;;;6.97;5.73;;;15.10;48.70;;;;;;4964533;28;20184;-91
2021/05/05 12:43:16;;;;;;;2.17;2.07;;;15.50;50.00;;;;;;4960679;28;21063;-84
2021/05/05 12:45:43;;;;;;;1.53;1.53;;;15.50;46.30;;;;;;4962789;28;20503;-84
2021/05/05 12:48:09;;;;;;;1.60;1.60;;;16.80;47.00;;;;;;4973731;28;20461;-89
2021/05/05 12:50:37;;;;;;;3.57;3.27;;;14.20;48.10;;;;;;4955226;29;20450;-89
2021/05/05 12:53:14;;;;;;;1.20;1.20;;;13.10;48.50;;;;;;4964281;29;20422;-91
2021/05/05 12:55:43;;;;;;;1.40;1.30;;;12.90;49.70;;;;;;4961981;29;20401;-92
2021/05/05 12:58:15;;;;;;;0.87;0.87;;;12.10;51.60;;;;;;4941383;29;20430;-90
2021/05/05 13:00:43;;;;;;;1.00;1.00;;;10.40;53.80;;;;;;4941518;29;20960;-88
2021/05/05 13:03:14;;;;;;;1.70;1.60;;;9.00;55.30;;;;;;4940007;29;20422;-91
2021/05/05 13:06:02;;;;;;;1.67;1.10;;;10.50;57.00;;;;;;4941698;29;20453;-90
2021/05/05 13:08:53;;;;;;;2.33;1.67;;;9.30;57.20;;;;;;4958508;29;20439;-88
2021/05/05 13:11:41;;;;;;;1.40;1.40;;;9.20;58.10;;;;;;4957847;29;20742;-88
2021/05/05 13:14:21;;;;;;;2.23;2.03;;;9.00;58.40;;;;;;4956642;29;20414;-87
2021/05/05 13:17:00;;;;;;;2.20;2.00;;;8.70;58.70;;;;;;4940222;29;20450;-87